Terminal Aerodrome Forecast
Issued by NWS Charleston, WV

Home | Current Version | Previous Version | Text Only | Print | Product List | Glossary On
Versions: 1 2 3 4 5 6 7 8 9 10 11 12 13 14 15 16 17 18
000
FTUS41 KRLX 260900 AAA
TAFPKB
TAF AMD
KPKB 260901Z 2609/2706 00000KT P6SM BKN100
     FM261500 21007KT P6SM SCT050
     FM262300 22004KT P6SM SCT120
     FM270200 19003KT P6SM BKN080
     FM270400 17003KT 5SM SHRA VCTS BKN045CB
      AMD NOT SKED=

USA.gov is the U.S. government's official web portal to all federal, state and local government web resources and services.